Weather observations for the past three days for
Ruston, Ruston Regional Airport
Imperial (Metric)
Date Time (cdt) Wind (mph) Vis. (mi.) Weather Sky Cond. Temperature (ºF) Relative Humidity Wind Chill (°F) Heat Index (°F) Pressure Precipitation (in)
Air Dwpt 6 hour altimeter (in) sea level (mb) 1 hr 3 hr 6 hr
Max. Min.
02 17:15 N 9 3.00 Partly Cloudy with Haze SCT075 73.2 43 34% 30.06 0.0
02 16:55 Vrbl 3 3.00 A Few Clouds with Haze FEW080 71.2 43.3 37% 30.06 0.0
02 16:35 N 7 3.00 A Few Clouds with Haze FEW080 70.2 42.1 36% 30.06 0.0
02 16:15 Vrbl 7 5.00 Fair with Haze CLR 71.6 42.6 35% 30.07 0.0
02 15:55 N 8 4.00 Mostly Cloudy with Haze BKN075 72.9 43.5 35% 30.07 0.0
02 15:35 N 6 5.00 Mostly Cloudy with Haze BKN075 73 42.6 34% 30.08 0.0
02 15:15 N 9 6.00 Mostly Cloudy with Haze BKN070 71.6 42.1 35% 30.09 0.0
02 14:55 N 8 6.00 A Few Clouds with Haze FEW070 71.2 43.3 37% 30.1 0.0
02 14:35 N 9 4.00 Fair with Haze CLR 71.8 42.1 34% 30.11 0.0
02 14:15 NE 15 4.00 Fair with Haze CLR 70.9 40.8 34% 30.11 0.0
02 13:55 Vrbl 7 7.00 Fair CLR 70.5 41.2 35% 30.11 0.0
02 13:35 N 10 5.00 A Few Clouds with Haze FEW300 70.7 41.4 35% 30.12 0.0
02 13:15 Vrbl 7 3.00 A Few Clouds with Haze FEW340 70 39.2 33% 30.12 0.0
02 12:55 N 12 4.00 A Few Clouds with Haze FEW360 69.6 38.7 69.6 52 32% 30.13 0.0
02 12:35 N 8 4.00 Fair with Haze CLR 69.1 41 36% 30.13 0.0
02 12:15 N 8 5.00 Fair with Haze CLR 68 40.8 37% 30.14 0.0
02 11:55 Vrbl 6 5.00 Fair with Haze CLR 66.9 41.7 40% 30.14 0.0
02 11:35 N 7 4.00 Fair with Haze CLR 67.3 43 41% 30.14 0.0
02 11:15 Vrbl 6 4.00 Fair with Haze CLR 66.4 43.9 44% 30.14 0.0
02 10:55 N 13 5.00 Fair with Haze CLR 65.7 43.5 45% 30.14 0.0
02 10:35 NE 7 5.00 Fair with Haze CLR 64.8 44.8 49% 30.14 0.0
02 10:15 Vrbl 7 4.00 Fair with Haze CLR 64.4 47.8 55% 30.13 0.0
02 09:55 NE 6 5.00 Fair with Haze CLR 62.2 48.6 61% 30.13 0.0
02 09:35 N 8 5.00 Fair with Haze CLR 61.2 49.3 65% 30.13 0.0
02 09:15 N 8 5.00 Fair with Haze CLR 59.9 48.7 67% 30.13 0.0
02 08:55 N 6 5.00 Fair with Haze CLR 58.6 50.5 75% 30.12 0.0
02 08:35 N 6 5.00 Fair with Haze CLR 57.4 50.5 78% 30.11 0.0
02 08:15 N 6 5.00 Fair with Haze CLR 56.1 51.1 83% 30.1 0.0
02 07:55 N 6 5.00 Fog/Mist CLR 54.7 51.8 90% 30.1 0.0
02 07:35 N 5 3.00 Fog/Mist CLR 53.6 52.9 97% 30.09 0.0
02 07:15 Calm 2.50 Fog/Mist FEW150 52.3 52.3 100% 30.08 0.0
02 06:55 NW 3 2.50 Fog/Mist SCT130 OVC150 52.3 52.3 54.5 52.3 100% 30.06 0.0
02 06:35 Calm 3.00 Fog/Mist BKN130 OVC160 52.5 52.3 99% 30.05 0.0
02 06:15 N 3 2.50 Fog/Mist OVC130 52.5 52.5 100% 30.04 0.0
02 05:55 N 3 5.00 Fog/Mist OVC140 53.1 53.1 100% 30.03 0.0
02 05:35 N 5 5.00 Fog/Mist OVC140 53.2 53.2 100% 30.03 0.0
02 05:15 Vrbl 5 5.00 Fog/Mist OVC140 53.4 53.4 100% 30.02 0.0
02 04:55 N 3 5.00 Fog/Mist OVC130 53.8 53.8 100% 30.02 0.0
02 04:35 NW 5 5.00 Fog/Mist OVC130 53.6 53.6 100% 30.02 0.0
02 04:15 NW 3 4.00 Fog/Mist OVC140 53.4 53.4 100% 30.02 0.0
02 03:55 Calm 3.00 Fog/Mist OVC120 53.8 53.8 100% 30.02 0.0 0.01
02 03:35 Calm 3.00 Fog/Mist OVC120 53.8 53.8 100% 30.01 0.0
02 03:15 Calm 2.50 Fog/Mist OVC120 53.6 53.6 100% 30.01 0.0
02 02:55 Calm 4.00 Fog/Mist BKN130 53.4 53.4 100% 30 0.0
02 02:35 Calm 5.00 Fog/Mist FEW120 53.6 53.6 100% 30 0.0
02 02:15 Calm 5.00 Fog/Mist OVC120 54.1 54.1 100% 30.01 0.0
02 01:55 Calm 5.00 Fog/Mist OVC110 54.5 54.5 100% 30.02 0.0 0.01
02 01:35 Calm 4.00 Fog/Mist OVC110 54.5 54.5 100% 30.02 0.0 0.01
02 01:15 Calm 2.50 Fog/Mist BKN100 OVC130 54.5 54.5 100% 30.03 0.0
02 00:55 Calm 5.00 Fog/Mist BKN130 54.9 54.9 56.5 54.9 100% 30.03 0.0 0.02
02 00:35 Calm 5.00 Light Rain Fog/Mist FEW090 SCT130 55 55 100% 30.02 0.0
02 00:15 Calm 5.00 Fog/Mist SCT080 SCT095 55.2 55.2 100% 30.03 0.0
01 23:55 Calm 4.00 Light Rain Fog/Mist BKN080 OVC090 55.2 55.2 100% 30.03 0.0 0.01
01 23:35 Calm 4.00 Fog/Mist OVC090 55 55 100% 30.02 0.0 0.01
01 23:15 Calm 5.00 Fog/Mist BKN100 55 55 100% 30.03 0.0 0.01
01 22:55 Calm 3.00 Fog/Mist FEW090 55.2 55.2 100% 30.02 0.0 0.01
01 22:35 Calm 5.00 Light Rain Fog/Mist SCT090 55.4 55.4 100% 30.02 0.0 0.01
01 22:15 Calm 5.00 Fog/Mist FEW085 55.2 55.2 100% 30.03 0.0 0.01
01 21:55 Calm 2.50 Light Rain Fog/Mist FEW075 55.2 55.2 100% 30.01 0.0
01 21:35 Calm 5.00 Light Rain Fog/Mist SCT080 SCT100 55.2 55.2 100% 30 0.0
01 21:15 Calm 6.00 Light Rain Fog/Mist FEW070 55 55 100% 29.99 0.0
01 20:55 Calm 4.00 Fog/Mist CLR 55.4 55.4 100% 29.97 0.0
01 20:35 Calm 7.00 Fair CLR 55.6 55.6 100% 29.97 0.0
01 20:15 Calm 8.00 A Few Clouds FEW085 55.6 55.6 100% 29.97 0.0
01 19:55 NE 3 7.00 Light Rain SCT055 OVC085 55.2 55.2 100% 29.97 0.0
01 19:35 Calm 6.00 Fog/Mist OVC055 55.9 55.9 100% 29.99 0.0
01 19:15 Calm 5.00 Fog/Mist BKN055 OVC090 56.1 56.1 100% 29.99 0.0
01 18:55 Calm 6.00 Light Rain Fog/Mist FEW055 OVC090 56.3 55.2 57.2 55.2 96% 29.99 0.0 0.06
01 18:35 Calm 6.00 Fog/Mist SCT055 OVC090 57 55 93% 29.99 0.0
01 18:15 Calm 6.00 Fog/Mist BKN055 OVC085 56.8 55 94% 29.99 0.0
01 17:55 N 3 8.00 Overcast OVC055 56.8 55.9 97% 29.97 0.0
01 17:35 N 3 9.00 Overcast OVC050 57 55.2 94% 29.96 0.0
01 17:15 N 6 10.00 Overcast SCT050 OVC090 57 55.6 95% 29.95 0.0
01 16:55 NE 10 10.00 Overcast FEW016 OVC085 57.2 56.1 96% 29.92 0.0
01 16:35 NE 7 8.00 Overcast SCT015 OVC080 57 55.4 94% 29.92 0.0
01 16:15 NE 7 5.00 Fog/Mist SCT012 BKN085 56.7 56.1 98% 29.9 0.0
01 15:55 NE 8 7.00 A Few Clouds FEW009 56.5 56.5 100% 29.89 0.0 0.01 0.06
01 15:35 NE 14 4.00 Fog/Mist FEW080 56.3 56.3 100% 29.89 0.0
01 15:15 E 6 4.00 Light Rain Fog/Mist FEW080 55.9 55.6 99% 29.94 0.0
01 14:55 NE 7 3.00 Fog/Mist FEW037 SCT075 SCT090 56.1 56.1 100% 29.96 0.0 0.02
01 14:35 Vrbl 5 4.00 Light Rain Fog/Mist FEW009 SCT090 55.8 55.8 100% 29.96 0.0 0.02
01 14:15 NE 7 4.00 Light Rain Fog/Mist SCT008 SCT075 55.6 55.6 100% 29.97 0.0 0.01
01 13:55 N 7 7.00 Light Rain FEW008 55.8 55.8 100% 30 0.0 0.03
01 13:35 N 9 7.00 Light Rain FEW010 SCT075 55.4 55.4 100% 30 0.0 0.02
01 12:55 N 7 6.00 Light Rain Fog/Mist SCT008 55.4 55.4 55.8 53.6 100% 30.02 0.0 0.07 0.26
01 12:35 N 5 5.00 Light Rain Fog/Mist BKN008 BKN075 55.4 55.4 100% 30.03 0.0 0.06
01 12:15 Vrbl 5 4.00 Light Rain Fog/Mist FEW007 SCT019 BKN075 55.2 55.2 100% 30.04 0.0 0.04
01 11:55 NE 3 2.50 Light Rain Fog/Mist SCT009 BKN070 55 55 100% 30.04 0.0 0.07
01 11:35 Calm 2.00 Light Rain Fog/Mist SCT007 BKN030 BKN075 55 55 100% 30.05 0.0 0.03
01 11:15 NE 3 2.00 Light Rain Fog/Mist FEW006 BKN036 54.7 54.7 100% 30.04 0.0
01 10:55 E 3 2.50 Light Rain Fog/Mist FEW006 BKN070 54.5 54.5 100% 30.02 0.0 0.03
01 10:35 E 3 2.50 Fog/Mist BKN007 OVC070 54.5 54.5 100% 30.02 0.0 0.02
01 10:15 Calm 2.00 Light Rain Fog/Mist BKN007 OVC020 54.5 54.5 100% 30.02 0.0 0.01
01 09:55 Vrbl 3 2.50 Light Rain Fog/Mist BKN008 BKN065 OVC085 54.3 54.3 100% 30.01 0.0 0.03 0.09
01 09:35 E 7 2.50 Light Rain Fog/Mist BKN006 BKN010 OVC045 54.3 54.3 100% 30.02 0.0 0.03
01 09:15 NE 5 2.50 Light Rain Fog/Mist FEW006 BKN045 OVC060 54.3 54.3 100% 30.03 0.0 0.01
01 08:55 NE 6 2.50 Light Rain Fog/Mist FEW014 SCT031 OVC060 54 54 100% 30.02 0.0 0.04
01 08:35 NE 6 2.00 Light Rain Fog/Mist FEW009 BKN029 53.8 53.8 100% 30.02 0.0 0.03
01 08:15 NE 5 2.50 Light Rain Fog/Mist BKN028 OVC039 53.8 53.8 100% 30.02 0.0 0.01
01 07:55 NE 6 2.00 Rain Fog/Mist FEW025 BKN033 OVC050 53.8 53.8 100% 30 0.0 0.02
01 07:35 NE 7 2.00 Light Rain Fog/Mist FEW025 OVC036 53.8 53.8 100% 30 0.0 0.01
01 07:15 NE 8 2.50 Rain Fog/Mist OVC037 54.3 54.3 100% 29.99 0.0
01 06:55 N 7 5.00 Light Rain Fog/Mist OVC037 55.4 54.9 57.9 55.2 98% 29.98 0.0
01 06:35 N 7 5.00 Fog/Mist OVC037 55.2 54.7 98% 29.96 0.0
01 06:15 N 6 6.00 Fog/Mist OVC037 55.6 55 98% 29.96 0.0
01 05:55 Calm 5.00 Fog/Mist OVC038 55.6 54.9 97% 29.96 0.0
01 05:35 N 5 6.00 Fog/Mist OVC038 55.8 54 94% 29.95 0.0
01 05:15 N 6 6.00 Fog/Mist OVC037 55.8 54.1 94% 29.95 0.0
01 04:55 N 6 8.00 Overcast OVC035 55.9 54.3 94% 29.95 0.0
01 04:35 Vrbl 5 9.00 Overcast OVC033 55.9 54.3 94% 29.94 0.0
01 04:15 N 7 10.00 Overcast OVC031 55.9 54.9 96% 29.94 0.0
01 03:55 N 6 7.00 Overcast OVC032 56.3 55.9 99% 29.95 0.0
01 03:35 N 6 8.00 Overcast OVC033 56.3 56.1 99% 29.95 0.0
01 03:15 Vrbl 7 8.00 Overcast OVC033 56.5 56.3 99% 29.95 0.0
01 02:55 N 5 9.00 Overcast OVC032 56.7 56.7 100% 29.95 0.0
01 02:35 N 7 7.00 Light Rain OVC032 57.4 57.4 100% 29.95 0.0
01 02:15 N 6 10.00 Overcast OVC033 57.6 57.6 100% 29.96 0.0
01 01:55 N 5 10.00 Overcast BKN032 OVC041 57.7 57.7 100% 29.97 0.0
01 01:35 N 6 10.00 Overcast FEW033 OVC041 57.7 57.6 99% 29.97 0.0
01 01:15 N 3 10.00 Overcast OVC040 57.7 57.7 100% 29.95 0.0
01 00:55 N 3 9.00 Overcast OVC037 57.7 57.7 59.5 57.4 100% 29.95 0.0 0.04
01 00:35 NE 5 9.00 Overcast OVC036 57.9 57.9 100% 29.94 0.0
01 00:15 NE 3 10.00 Overcast OVC033 57.9 57.9 100% 29.96 0.0
30 23:55 Calm 4.00 Fog/Mist OVC032 57.6 57.6 100% 29.99 0.0
30 23:35 N 5 10.00 Overcast OVC034 57.6 57.6 100% 29.99 0.0
30 23:15 Calm 9.00 Overcast OVC033 57.7 57.7 100% 29.96 0.0
30 22:55 Vrbl 3 10.00 Overcast OVC034 57.7 57.7 100% 29.97 0.0
30 22:35 Vrbl 6 10.00 Overcast OVC034 57.7 57.7 100% 29.97 0.0
30 22:15 NE 3 9.00 Mostly Cloudy BKN034 57.9 57.9 100% 29.96 0.0
30 21:55 NE 5 8.00 Fair CLR 57.6 57.6 100% 29.97 0.0 0.01 0.04
30 21:35 NE 3 8.00 Light Rain FEW130 57.9 57.9 100% 29.96 0.0 0.01
30 21:15 N 6 8.00 A Few Clouds FEW130 57.9 57.9 100% 29.96 0.0
30 20:55 NE 6 8.00 Fair CLR 58.1 58.1 100% 29.93 0.0 0.01
30 20:35 Vrbl 6 7.00 Light Rain CLR 58.3 58.3 100% 29.92 0.0 0.01
30 20:15 NE 6 6.00 Light Rain Fog/Mist CLR 58.5 58.5 100% 29.91 0.0 0.01
30 19:55 N 8 6.00 Light Rain Fog/Mist CLR 59 59 100% 29.92 0.0 0.02
30 19:35 N 5 6.00 Light Rain Fog/Mist CLR 59 59 100% 29.92 0.0 0.01
30 19:15 NE 6 3.00 Light Rain Fog/Mist CLR 59.2 59.2 100% 29.9 0.0 0.01
30 18:55 NE 3 5.00 Light Rain Fog/Mist CLR 59.5 59.5 66.4 59.5 100% 29.91 0.0 0.02 0.16
30 18:35 E 5 4.00 Light Rain Fog/Mist CLR 59.7 59.7 100% 29.91 0.0 0.02
30 18:15 Calm 4.00 Light Rain Fog/Mist CLR 60.1 60.1 100% 29.92 0.0 0.01
30 17:55 NE 6 4.00 Light Rain Fog/Mist CLR 60.4 60.1 99% 29.91 0.0 0.07
30 17:35 E 7 5.00 Light Rain Fog/Mist CLR 60.8 60.4 99% 29.89 0.0 0.06
30 17:15 NE 8 6.00 Light Rain Fog/Mist FEW047 61 60.8 99% 29.92 0.0 0.05
30 16:55 E 5 2.00 Light Rain Fog/Mist SCT047 OVC055 61.5 60.8 98% 29.93 0.0 0.07
30 16:35 Vrbl 5 2.00 Rain Fog/Mist SCT046 OVC055 61.7 60.1 94% 29.94 0.0 0.01
30 16:15 N 5 6.00 Overcast with Haze OVC045 64.6 56.3 75% 29.93 0.0
30 15:55 NE 9 6.00 Overcast with Haze OVC042 65.7 56.8 73% 29.91 0.0
30 15:35 Vrbl 7 8.00 Thunderstorm in Vicinity OVC043 65.5 57 74% 29.92 0.0
30 15:15 N 12 10.00 Overcast OVC044 66.2 56.8 72% 29.94 0.0
30 14:55 N 7 10.00 Overcast OVC044 65.8 56.7 72% 29.95 0.0
30 14:35 NE 9 9.00 Overcast OVC042 65.5 57.4 75% 29.95 0.0
30 14:15 NE 8 8.00 Overcast OVC041 64.6 56.5 75% 29.94 0.0
30 13:55 NE 10 9.00 Overcast OVC039 63.9 55.9 76% 29.95 0.0
30 13:35 NE 7 9.00 Overcast OVC038 63.5 57.2 80% 29.95 0.0
30 13:15 Vrbl 6 9.00 Overcast OVC039 62.8 56.1 79% 29.95 0.0
30 12:55 NE 8 10.00 Overcast OVC039 62.6 56.1 63.1 59.9 79% 29.95 0.0 0.01
30 12:35 NE 12 10.00 Overcast OVC039 62.4 56.3 81% 29.95 0.0
30 12:15 Vrbl 7 10.00 Overcast OVC038 62.6 57.9 85% 29.95 0.0
30 11:55 NE 9 10.00 Overcast OVC038 61.5 57 85% 29.97 0.0
30 11:35 NE 10 10.00 Overcast FEW016 OVC037 61.7 57.4 86% 29.97 0.0
30 11:15 NE 14 G 18 10.00 Overcast OVC036 61.7 57.4 86% 29.98 0.0
30 10:55 NE 8 10.00 Overcast OVC033 61.3 57.9 89% 29.98 0.0
30 10:35 NE 7 10.00 Overcast FEW016 OVC036 61 58.1 90% 29.97 0.0
30 10:15 NE 8 10.00 Overcast FEW016 OVC036 60.8 58.8 93% 29.97 0.0
30 09:55 NE 8 10.00 Overcast BKN016 OVC034 61 59.4 94% 29.97 0.0 0.01
30 09:35 NE 12 10.00 Overcast BKN017 OVC034 61 59.5 95% 29.97 0.0
30 09:15 NE 8 10.00 Overcast BKN013 OVC019 61 60.1 97% 29.97 0.0
30 08:55 NE 8 10.00 Overcast BKN012 BKN018 OVC032 61 60.8 99% 29.96 0.0 0.01
30 08:35 NE 10 10.00 Overcast BKN013 OVC031 61 61 100% 29.95 0.0
30 08:15 NE 6 10.00 Overcast BKN012 OVC030 60.8 60.8 100% 29.94 0.0
30 07:55 NE 8 10.00 Overcast BKN009 OVC029 60.4 60.4 100% 29.95 0.0
30 07:35 NE 7 10.00 Overcast BKN009 OVC029 60.3 60.3 100% 29.95 0.0
30 07:15 NE 7 10.00 Overcast BKN008 OVC012 60.1 60.1 100% 29.94 0.0
30 06:55 NE 8 9.00 Overcast OVC008 60.1 60.1 62.4 59.9 100% 29.92 0.0 0.24
30 06:35 NE 10 10.00 Overcast OVC008 60.1 60.1 100% 29.92 0.0
30 06:15 NE 7 10.00 Overcast SCT008 BKN012 OVC027 60.3 60.3 100% 29.92 0.0
30 05:55 NE 8 10.00 Overcast SCT009 OVC025 60.1 60.1 100% 29.92 0.0
30 05:35 NE 7 10.00 Overcast BKN008 OVC022 60.1 60.1 100% 29.92 0.0
30 05:15 N 6 9.00 Overcast FEW006 SCT011 OVC020 60.1 60.1 100% 29.93 0.0
30 04:55 N 6 8.00 Light Rain BKN009 BKN016 60.1 60.1 100% 29.93 0.0 0.04
30 04:35 N 7 8.00 Light Rain BKN008 60.1 60.1 100% 29.93 0.0 0.04
30 04:15 NE 12 7.00 Light Rain OVC008 60.1 60.1 100% 29.91 0.0 0.02
30 03:55 E 6 5.00 Light Rain Fog/Mist FEW007 BKN012 BKN043 60.4 60.4 100% 29.9 0.0 0.04 0.2
30 03:35 NE 8 5.00 Light Rain Fog/Mist FEW007 SCT012 SCT020 BKN031 OVC043 60.4 60.4 100% 29.92 0.0 0.02
30 03:15 NE 8 9.00 Light Rain Thunderstorm in Vicinity SCT007 BKN012 OVC020 60.6 60.6 100% 29.92 0.0 0.02
30 02:55 N 9 5.00 Light Rain Fog/Mist FEW006 SCT012 BKN022 61 61 100% 29.93 0.0 0.16
30 02:35 N 8 6.00 Light Rain Fog/Mist Thunderstorm in Vicinity SCT006 BKN011 OVC024 61.3 61.3 100% 29.94 0.0 0.12
30 02:15 Vrbl 5 2.50 Heavy Rain Fog/Mist BKN006 OVC017 61.7 61.7 100% 29.94 0.0 0.04
30 01:55 N 6 6.00 Fog/Mist BKN007 OVC014 62.1 62.1 100% 29.92 0.0
30 01:35 N 7 10.00 Overcast BKN007 OVC016 62.1 62.1 100% 29.92 0.0
30 01:15 N 7 5.00 Fog/Mist SCT006 BKN015 OVC020 62.4 62.4 100% 29.93 0.0
30 00:55 NE 6 5.00 Fog/Mist SCT006 OVC014 62.6 62.6 65.7 62.6 100% 29.94 0.0 0.02
30 00:35 N 9 7.00 Overcast BKN007 OVC012 62.8 62.8 100% 29.94 0.0
30 00:15 N 5 5.00 Fog/Mist Thunderstorm in Vicinity BKN006 OVC010 63 63 100% 29.93 0.0
29 23:55 NE 6 6.00 Fog/Mist OVC005 63.1 63.1 100% 29.94 0.0
29 23:35 NE 8 5.00 Fog/Mist OVC005 63.1 63.1 100% 29.95 0.0
29 22:55 Vrbl 3 6.00 Fog/Mist OVC006 63.5 63.5 100% 29.96 0.0
29 22:35 N 3 6.00 Fog/Mist OVC006 63.5 63.5 100% 29.97 0.0
29 22:15 N 5 9.00 Overcast OVC006 63.7 63.7 100% 29.95 0.0
29 21:55 Vrbl 5 10.00 Overcast OVC006 63.7 63.7 100% 29.93 0.0 0.02
29 21:35 NW 3 10.00 Overcast BKN007 OVC180 63.7 63.7 100% 29.93 0.0
29 21:15 Vrbl 6 10.00 Mostly Cloudy FEW008 SCT180 BKN210 63.9 63.9 100% 29.9 0.0
29 20:55 SE 5 10.00 Mostly Cloudy SCT008 BKN220 64 64 100% 29.88 0.0
29 20:35 E 8 10.00 Overcast OVC008 64 64 100% 29.87 0.0
29 20:15 NE 10 10.00 Overcast OVC008 64.2 64.2 100% 29.88 0.0
29 19:55 NE 8 10.00 Overcast OVC006 64.4 64.4 100% 29.87 0.0 0.02
29 19:35 NE 8 G 21 10.00 Overcast OVC006 64.9 64.9 100% 29.85 0.0 0.02
29 19:15 NE 7 6.00 Light Rain Fog/Mist OVC006 65.5 65.5 100% 29.86 0.0 0.01
29 18:55 Vrbl 3 10.00 Light Rain Thunderstorm in Vicinity OVC006 65.3 65.3 70 64.8 100% 29.89 0.0 0.02 0.53
29 18:35 N 12 10.00 Light Rain Thunderstorm in Vicinity OVC005 65.7 65.7 100% 29.88 0.0 0.02
29 18:15 NW 7 10.00 Light Rain OVC005 65.5 65.5 100% 29.87 0.0 0.01
29 17:55 Vrbl 7 10.00 Light Rain BKN005 OVC016 65.3 65.3 100% 29.88 0.0 0.01
29 17:35 Vrbl 3 10.00 Light Rain OVC005 65.3 65.3 100% 29.88 0.0
Date Time (cdt) Wind (mph) Vis. (mi.) Weather Sky Cond. Air Dwpt Max. Min. Relative Humidity Wind Chill (°F) Heat Index (°F) altimeter (in) sea level (mb) 1 hr 3 hr 6 hr
6 hour
Temperature (ºF) Pressure Precipitation (in)